< Cyclone 196812 1968 Season Cyclone 196814 >
Cyclone 196813 (UNNAMED)
General InformationTrack Information on Google Maps || ResourceGoogle EarthGE AnimationAtom FeedGeoJSON
Detalied Best Track (Time Zone = UTC)
Year Month Day Hour Lat. Long. Pressure (hPa) Wind (kt) Class Image Chart
1968 2 12 23 -16.6 138.5 1002 0 0 -- --
1968 2 13 02 -16.6 138.6 1002 0 0 -- --
1968 2 13 05 -16.5 138.6 1000 0 0 -- --
1968 2 13 08 -16.4 138.8 1000 0 0 -- --
1968 2 13 11 -16.3 139.0 1000 0 0 -- --
1968 2 13 14 -16.2 139.2 1000 0 0 -- --
1968 2 13 17 -16.2 139.4 1000 0 0 -- --
1968 2 13 20 -16.1 139.6 999 0 0 -- --
1968 2 13 23 -16.1 139.8 999 0 0 -- --
1968 2 14 02 -16.2 140.2 999 0 0 -- --
1968 2 14 05 -16.3 140.4 998 0 0 -- --
1968 2 14 08 -16.5 140.6 998 0 0 -- --
1968 2 14 11 -16.7 140.9 997 0 0 -- --
1968 2 14 14 -17.0 141.1 997 0 0 -- --
1968 2 14 17 -17.3 141.4 997 0 0 -- --
1968 2 14 20 -17.6 141.7 997 0 0 -- --
1968 2 14 23 -18.1 142.0 997 0 0 -- --
1968 2 15 02 -18.4 142.3 997 0 0 -- --
1968 2 15 05 -18.9 142.6 996 0 0 -- --
1968 2 15 08 -19.4 142.8 997 0 0 -- --
1968 2 15 11 -20.0 142.9 997 0 0 -- --
1968 2 15 14 -20.6 142.7 998 0 0 -- --
1968 2 15 17 -21.1 142.4 999 0 0 -- --
1968 2 15 20 -21.4 142.0 999 0 0 -- --
1968 2 15 23 -21.5 141.7 1000 0 0 -- --
1968 2 16 02 -21.7 141.4 1000 0 0 -- --
1968 2 16 05 -21.8 141.2 998 0 0 -- --
1968 2 16 08 -21.9 140.9 999 0 0 -- --
1968 2 16 11 -22.0 140.7 1002 0 0 -- --
1968 2 16 14 -22.1 140.4 1002 0 0 -- --
1968 2 16 17 -22.1 140.3 1002 0 0 -- --
1968 2 16 20 -22.2 139.8 1002 0 0 -- --
< Cyclone 196812 1968 Season Cyclone 196814 >

Help